createdAt,value
2019-04-14T00:01:21.953Z,22.90
2019-04-14T00:06:29.164Z,24.57
2019-04-14T00:11:41.599Z,28.27
2019-04-14T00:16:48.990Z,29.23
2019-04-14T00:21:56.645Z,26.83
2019-04-14T00:27:04.218Z,27.50
2019-04-14T00:32:11.730Z,26.90
2019-04-14T00:37:38.362Z,21.83
2019-04-14T00:42:54.568Z,28.40
2019-04-14T00:48:16.659Z,25.37
2019-04-14T00:53:22.609Z,23.83
2019-04-14T00:58:29.987Z,20.00
2019-04-14T01:03:37.345Z,21.50
2019-04-14T01:08:45.085Z,21.83
2019-04-14T01:13:52.885Z,22.40
2019-04-14T01:19:00.454Z,21.50
2019-04-14T01:24:07.532Z,22.80
2019-04-14T01:29:14.437Z,23.63
2019-04-14T01:34:21.659Z,23.00
2019-04-14T01:39:28.641Z,22.87
2019-04-14T01:44:35.335Z,26.97
2019-04-14T01:49:44.299Z,26.40
2019-04-14T01:55:15.478Z,21.90
2019-04-14T02:00:33.668Z,27.37
2019-04-14T02:05:40.718Z,23.90
2019-04-14T02:10:47.810Z,22.97
2019-04-14T02:15:55.567Z,27.20
2019-04-14T02:21:02.178Z,27.02
2019-04-14T02:26:09.118Z,25.20
2019-04-14T02:31:39.447Z,26.85
2019-04-14T02:36:58.668Z,28.47
2019-04-14T02:42:15.415Z,25.80
2019-04-14T02:47:27.692Z,26.37
2019-04-14T02:57:23.107Z,28.13
2019-04-14T03:02:40.822Z,32.73
2019-04-14T03:12:48.760Z,33.65
2019-04-14T03:18:46.537Z,29.80
2019-04-14T03:23:53.380Z,32.77
2019-04-14T03:28:51.287Z,28.55
2019-04-14T03:39:15.310Z,30.73
2019-04-14T03:49:31.674Z,34.90
2019-04-14T03:54:34.957Z,34.75
2019-04-14T03:59:21.877Z,34.53
2019-04-14T04:04:29.448Z,35.78
2019-04-14T04:09:41.097Z,31.53
2019-04-14T04:14:48.547Z,31.80
2019-04-14T04:20:26.373Z,36.25
2019-04-14T04:25:42.092Z,33.90
2019-04-14T04:31:21.858Z,31.23
2019-04-14T04:36:53.616Z,32.73
2019-04-14T04:42:00.475Z,35.83
2019-04-14T04:47:07.768Z,33.13
2019-04-14T04:52:15.737Z,34.10
2019-04-14T04:57:22.630Z,32.83
2019-04-14T05:02:29.088Z,29.18
2019-04-14T05:07:36.228Z,30.97
2019-04-14T05:12:50.441Z,28.67
2019-04-14T05:17:57.987Z,31.35
2019-04-14T05:23:05.814Z,27.40
2019-04-14T05:28:13.565Z,28.93
2019-04-14T05:33:20.694Z,36.70
2019-04-14T05:38:30.279Z,31.20
2019-04-14T05:43:43.735Z,27.80
2019-04-14T05:48:44.650Z,28.80
2019-04-14T05:53:52.275Z,27.90
2019-04-14T05:59:00.056Z,29.43
2019-04-14T06:04:07.479Z,30.93
2019-04-14T06:09:14.139Z,31.87
2019-04-14T06:14:20.788Z,32.23
2019-04-14T06:19:36.444Z,29.87
2019-04-14T06:24:35.719Z,30.07
2019-04-14T06:29:42.277Z,30.17
2019-04-14T06:35:07.722Z,27.50
2019-04-14T06:40:14.272Z,28.53
2019-04-14T06:45:20.920Z,28.20
2019-04-14T06:50:27.468Z,34.98
2019-04-14T06:55:34.015Z,31.17
2019-04-14T07:00:41.623Z,28.35
2019-04-14T07:05:49.813Z,33.58
2019-04-14T07:10:56.256Z,29.87
2019-04-14T07:16:02.780Z,31.95
2019-04-14T07:21:09.383Z,30.23
2019-04-14T07:26:15.993Z,26.30
2019-04-14T07:31:44.534Z,29.60
2019-04-14T07:37:09.937Z,30.27
2019-04-14T07:42:36.130Z,29.15
2019-04-14T07:47:49.581Z,25.75
2019-04-14T07:53:14.188Z,20.10
2019-04-14T07:58:47.091Z,45.08
2019-04-14T08:04:07.386Z,18.82
2019-04-14T08:09:13.937Z,14.70
2019-04-14T08:14:20.579Z,58.02
2019-04-14T08:19:27.160Z,16.17
2019-04-14T08:24:33.768Z,12.63
2019-04-14T08:29:40.303Z,16.07
2019-04-14T08:34:46.909Z,9.65
2019-04-14T08:39:53.529Z,13.30
2019-04-14T08:45:04.916Z,8.93
2019-04-14T08:50:16.710Z,11.08
2019-04-14T08:55:28.789Z,9.13
2019-04-14T09:00:45.997Z,10.10
2019-04-14T09:06:14.148Z,11.00
2019-04-14T09:11:27.051Z,7.85
2019-04-14T09:16:33.862Z,6.63
2019-04-14T09:21:40.393Z,6.45
2019-04-14T09:26:46.958Z,7.95
2019-04-14T09:31:53.485Z,7.92
2019-04-14T09:42:06.855Z,7.57
2019-04-14T09:47:13.397Z,12.07
2019-04-14T09:52:20.024Z,8.23
2019-04-14T09:57:26.515Z,9.40
2019-04-14T10:02:33.093Z,9.18
2019-04-14T10:07:39.608Z,7.15
2019-04-14T10:12:46.201Z,9.15
2019-04-14T10:17:53.049Z,10.23
2019-04-14T10:22:59.498Z,6.97
2019-04-14T10:28:06.170Z,6.95
2019-04-14T10:33:12.671Z,7.17
2019-04-14T10:38:19.184Z,7.75
2019-04-14T10:43:26.890Z,7.72
2019-04-14T10:48:33.448Z,7.20
2019-04-14T10:53:40.828Z,7.20
2019-04-14T10:59:09.860Z,6.50
2019-04-14T11:04:19.534Z,6.75
2019-04-14T11:09:27.434Z,6.75
2019-04-14T11:14:34.230Z,7.80
2019-04-14T11:19:40.926Z,6.50
2019-04-14T11:24:49.238Z,8.73
2019-04-14T11:29:59.166Z,6.87
2019-04-14T11:35:26.231Z,8.50
2019-04-14T11:40:36.661Z,9.80
2019-04-14T11:45:43.124Z,9.58
2019-04-14T11:50:49.761Z,10.25
2019-04-14T11:55:56.367Z,7.92
2019-04-14T12:01:27.617Z,7.05
2019-04-14T12:06:59.007Z,7.97
2019-04-14T12:12:08.829Z,7.22
2019-04-14T12:17:15.444Z,6.40
2019-04-14T12:22:23.120Z,5.72
2019-04-14T12:27:29.643Z,9.40
2019-04-14T12:32:36.497Z,8.20
2019-04-14T12:37:43.099Z,7.37
2019-04-14T12:43:20.974Z,7.65
2019-04-14T12:48:40.457Z,7.42
2019-04-14T12:53:47.102Z,7.83
2019-04-14T12:59:18.716Z,9.73
2019-04-14T13:04:25.241Z,7.47
2019-04-14T13:09:31.843Z,9.03
2019-04-14T13:14:38.467Z,8.95
2019-04-14T13:19:45.089Z,10.08
2019-04-14T13:24:51.633Z,10.15
2019-04-14T13:29:58.260Z,8.98
2019-04-14T13:35:05.504Z,10.60
2019-04-14T13:40:12.655Z,12.05
2019-04-14T13:45:19.275Z,12.75
2019-04-14T13:50:25.920Z,11.70
2019-04-14T13:55:32.464Z,14.38
2019-04-14T14:00:39.074Z,16.55
2019-04-14T14:05:45.705Z,19.80
2019-04-14T14:10:56.483Z,19.60
2019-04-14T14:16:22.132Z,22.07
2019-04-14T14:21:46.476Z,21.85
2019-04-14T14:26:53.673Z,22.52
2019-04-14T14:32:01.488Z,20.88
2019-04-14T14:37:07.930Z,25.77
2019-04-14T14:42:14.478Z,24.12
2019-04-14T14:47:24.314Z,31.27
2019-04-14T14:52:31.550Z,33.15
2019-04-14T14:57:38.174Z,32.20
2019-04-14T15:02:44.744Z,38.70
2019-04-14T15:07:51.212Z,35.03
2019-04-14T15:12:57.747Z,36.28
2019-04-14T15:18:04.552Z,39.10
2019-04-14T15:23:24.030Z,44.42
2019-04-14T15:28:19.321Z,52.93
2019-04-14T15:33:25.861Z,47.48
2019-04-14T15:38:32.314Z,67.70
2019-04-14T15:43:38.869Z,54.13
2019-04-14T15:48:45.516Z,68.90
2019-04-14T15:53:52.233Z,58.38
2019-04-14T15:59:07.091Z,62.17
2019-04-14T16:04:27.226Z,72.82
2019-04-14T16:10:07.888Z,81.60
2019-04-14T16:15:20.905Z,78.17
2019-04-14T16:20:30.986Z,69.47
2019-04-14T16:25:55.453Z,59.65
2019-04-14T16:31:16.502Z,121.82
2019-04-14T16:36:23.531Z,147.57
2019-04-14T16:41:30.186Z,103.17
2019-04-14T16:46:36.831Z,134.43
2019-04-14T16:52:03.422Z,130.40
2019-04-14T16:57:29.109Z,106.43
2019-04-14T17:02:36.049Z,85.77
2019-04-14T17:07:42.544Z,154.20
2019-04-14T17:12:49.013Z,127.47
2019-04-14T17:18:14.406Z,196.50
2019-04-14T17:23:40.601Z,253.10
2019-04-14T17:28:55.268Z,193.97
2019-04-14T17:34:15.063Z,199.65
2019-04-14T17:39:33.269Z,77.85
2019-04-14T17:44:47.332Z,132.00
2019-04-14T17:50:03.241Z,112.17
2019-04-14T17:55:28.266Z,114.50
2019-04-14T18:00:45.507Z,209.72
2019-04-14T18:05:55.905Z,256.05
2019-04-14T18:11:07.893Z,199.95
2019-04-14T18:16:52.185Z,78.75
2019-04-14T18:21:58.660Z,241.57
2019-04-14T18:27:05.368Z,131.78
2019-04-14T18:32:20.522Z,76.57
2019-04-14T18:37:38.178Z,88.42
2019-04-14T18:43:03.623Z,111.45
2019-04-14T18:48:15.869Z,171.65
2019-04-14T18:53:31.022Z,122.95
2019-04-14T18:58:47.028Z,84.70
2019-04-14T19:03:53.490Z,118.45
2019-04-14T19:09:00.103Z,104.45
2019-04-14T19:14:07.999Z,123.40
2019-04-14T19:19:15.110Z,95.50
2019-04-14T19:24:21.657Z,93.65
2019-04-14T19:29:28.042Z,84.30
2019-04-14T19:34:34.602Z,71.72
2019-04-14T19:39:41.053Z,92.82
2019-04-14T19:44:47.546Z,91.00
2019-04-14T19:49:54.063Z,98.78
2019-04-14T19:55:00.613Z,81.15
2019-04-14T20:00:08.110Z,105.97
2019-04-14T20:05:14.828Z,141.82
2019-04-14T20:10:21.422Z,129.42
2019-04-14T20:15:31.185Z,139.85
2019-04-14T20:20:54.588Z,89.00
2019-04-14T20:26:20.141Z,74.45
2019-04-14T20:31:36.280Z,83.55
2019-04-14T20:36:43.912Z,82.35
2019-04-14T20:41:50.538Z,109.03
2019-04-14T20:46:57.256Z,86.35
2019-04-14T20:52:03.906Z,142.68
2019-04-14T20:57:10.548Z,104.87
2019-04-14T21:02:35.981Z,97.95
2019-04-14T21:08:07.079Z,76.40
2019-04-14T21:13:32.433Z,88.22
2019-04-14T21:18:50.432Z,71.00
2019-04-14T21:24:02.054Z,69.22
2019-04-14T21:29:18.316Z,80.47
2019-04-14T21:34:50.111Z,57.03
2019-04-14T21:40:09.168Z,75.62
2019-04-14T21:45:15.904Z,101.58
2019-04-14T21:50:23.633Z,67.15
2019-04-14T21:55:30.266Z,78.52
2019-04-14T22:01:49.129Z,105.78
2019-04-14T22:06:57.831Z,92.10
2019-04-14T22:12:06.421Z,63.17
2019-04-14T22:17:13.038Z,58.78
2019-04-14T22:22:19.703Z,58.45
2019-04-14T22:27:26.337Z,55.12
2019-04-14T22:32:32.884Z,87.30
2019-04-14T22:37:39.547Z,95.22
2019-04-14T22:42:46.185Z,77.32
2019-04-14T22:47:52.904Z,85.92
2019-04-14T22:52:59.449Z,87.53
2019-04-14T22:58:06.189Z,60.70
2019-04-14T23:03:30.863Z,72.60
2019-04-14T23:08:51.137Z,50.28
2019-04-14T23:14:25.682Z,57.08
2019-04-14T23:19:37.173Z,52.20
2019-04-14T23:24:46.235Z,54.65
2019-04-14T23:29:52.875Z,56.83
2019-04-14T23:34:59.416Z,56.50
2019-04-14T23:40:06.443Z,57.23
2019-04-14T23:45:13.170Z,60.48
2019-04-14T23:50:19.839Z,49.95
2019-04-14T23:55:26.463Z,49.05
